Time;durP1;ratioP1;P1;durP2;ratioP2;P2;SDS_P1;SDS_P2;PMS_P1;PMS_P2;Temp;Humidity;BMP_temperature;BMP_pressure;BME280_temperature;BME280_humidity;BME280_pressure;Samples;Min_cycle;Max_cycle;Signal;HPM_P1;HPM_P2
2023/09/29 00:00:13;;;;;;;6.10;3.67;;;;;;;;;;5074153;28;20051;-57
2023/09/29 00:02:40;;;;;;;5.63;3.35;;;;;;;;;;5073793;28;20057;-56
2023/09/29 00:05:09;;;;;;;6.60;2.90;;;;;;;;;;5073496;28;20048;-57
2023/09/29 00:07:37;;;;;;;4.15;3.00;;;;;;;;;;5073807;28;20048;-56
2023/09/29 00:10:07;;;;;;;6.05;3.38;;;;;;;;;;5074742;28;20052;-56
2023/09/29 00:12:35;;;;;;;3.72;2.95;;;;;;;;;;5073309;28;20067;-57
2023/09/29 00:15:03;;;;;;;6.00;3.13;;;;;;;;;;5073847;28;20482;-57
2023/09/29 00:17:31;;;;;;;5.68;2.55;;;;;;;;;;5073618;28;20063;-57
2023/09/29 00:19:58;;;;;;;5.15;3.00;;;;;;;;;;5073738;28;20044;-56
2023/09/29 00:22:24;;;;;;;4.90;3.08;;;;;;;;;;5073397;28;20053;-56
2023/09/29 00:24:51;;;;;;;5.32;2.60;;;;;;;;;;5087792;28;20052;-56
2023/09/29 00:27:18;;;;;;;4.55;3.33;;;;;;;;;;5093076;28;20048;-57
2023/09/29 00:29:45;;;;;;;4.97;2.83;;;;;;;;;;5093541;28;20056;-57
2023/09/29 00:32:12;;;;;;;4.00;2.72;;;;;;;;;;5093308;28;20492;-57
2023/09/29 00:34:41;;;;;;;5.63;3.40;;;;;;;;;;5093618;28;20481;-57
2023/09/29 00:37:09;;;;;;;6.25;2.92;;;;;;;;;;5093545;28;20416;-57
2023/09/29 00:39:36;;;;;;;5.28;3.40;;;;;;;;;;5079764;28;20075;-57
2023/09/29 00:42:06;;;;;;;7.15;4.40;;;;;;;;;;5073288;28;20048;-56
2023/09/29 00:44:33;;;;;;;6.45;3.30;;;;;;;;;;5072729;28;20079;-57
2023/09/29 00:47:00;;;;;;;4.75;3.50;;;;;;;;;;5072970;28;20052;-57
2023/09/29 00:49:29;;;;;;;4.80;3.20;;;;;;;;;;5073229;28;20052;-56
2023/09/29 00:52:00;;;;;;;6.07;3.13;;;;;;;;;;5073215;28;20055;-57
2023/09/29 00:54:28;;;;;;;6.57;4.35;;;;;;;;;;5073281;28;20052;-56
2023/09/29 00:56:55;;;;;;;5.30;3.00;;;;;;;;;;5072655;28;20494;-57
2023/09/29 00:59:24;;;;;;;4.93;3.28;;;;;;;;;;5072832;28;20048;-57
2023/09/29 01:01:51;;;;;;;4.53;3.20;;;;;;;;;;5072623;28;20056;-57
2023/09/29 01:04:18;;;;;;;6.05;3.58;;;;;;;;;;5072803;28;20052;-57
2023/09/29 01:06:45;;;;;;;4.85;3.15;;;;;;;;;;5072814;28;20060;-56
2023/09/29 01:09:14;;;;;;;4.70;2.92;;;;;;;;;;5072389;28;20055;-57
2023/09/29 01:11:42;;;;;;;5.57;3.13;;;;;;;;;;5087786;28;20048;-57
2023/09/29 01:14:11;;;;;;;7.22;3.80;;;;;;;;;;5092522;28;20417;-56
2023/09/29 01:16:38;;;;;;;4.50;2.97;;;;;;;;;;5092840;28;20079;-57
2023/09/29 01:19:08;;;;;;;6.35;3.20;;;;;;;;;;5092888;28;20055;-56
2023/09/29 01:21:34;;;;;;;;;;;;;;;;;;5093379;28;20166;-56
2023/09/29 01:24:02;;;;;;;3.92;2.78;;;;;;;;;;5074720;28;19920;-56
2023/09/29 01:26:29;;;;;;;5.57;2.97;;;;;;;;;;5072642;28;20058;-57
2023/09/29 01:28:56;;;;;;;5.07;3.05;;;;;;;;;;5072645;28;20454;-56
2023/09/29 01:31:23;;;;;;;4.82;3.03;;;;;;;;;;5072712;28;20048;-56
2023/09/29 01:33:50;;;;;;;5.90;2.88;;;;;;;;;;5072662;28;20049;-57
2023/09/29 01:36:17;;;;;;;6.45;3.20;;;;;;;;;;5073263;28;20060;-57
2023/09/29 01:38:45;;;;;;;5.72;3.25;;;;;;;;;;5075131;28;20401;-57
2023/09/29 01:41:14;;;;;;;6.10;3.60;;;;;;;;;;5096681;28;20056;-57
2023/09/29 01:43:41;;;;;;;4.93;3.00;;;;;;;;;;5096861;28;20059;-57
2023/09/29 01:46:09;;;;;;;6.57;3.15;;;;;;;;;;5096768;28;20421;-56
2023/09/29 01:48:36;;;;;;;4.78;3.35;;;;;;;;;;5096328;28;20056;-57
2023/09/29 01:51:03;;;;;;;5.88;2.85;;;;;;;;;;5096764;28;20059;-57
2023/09/29 01:53:30;;;;;;;4.35;3.10;;;;;;;;;;5092864;28;20056;-56
2023/09/29 01:55:57;;;;;;;4.82;3.60;;;;;;;;;;5076547;28;20056;-56
2023/09/29 01:58:26;;;;;;;5.88;3.38;;;;;;;;;;5075802;28;20052;-56
2023/09/29 02:00:54;;;;;;;4.78;3.00;;;;;;;;;;5076362;28;20056;-56
2023/09/29 02:03:21;;;;;;;5.10;3.13;;;;;;;;;;5076367;28;20064;-56
2023/09/29 02:05:48;;;;;;;4.85;3.00;;;;;;;;;;5075947;28;20057;-57
2023/09/29 02:08:14;;;;;;;5.25;2.75;;;;;;;;;;5075983;28;20059;-58
2023/09/29 02:10:41;;;;;;;4.13;2.90;;;;;;;;;;5075834;28;20048;-56
2023/09/29 02:13:08;;;;;;;7.03;3.35;;;;;;;;;;5075679;28;20052;-57
2023/09/29 02:15:36;;;;;;;4.97;3.40;;;;;;;;;;5075717;28;20056;-57
2023/09/29 02:18:04;;;;;;;4.85;3.33;;;;;;;;;;5075677;28;20064;-56
2023/09/29 02:20:31;;;;;;;3.58;2.58;;;;;;;;;;5075684;28;20059;-57
2023/09/29 02:22:58;;;;;;;4.82;3.10;;;;;;;;;;5075214;28;20057;-56
2023/09/29 02:25:26;;;;;;;11.10;3.80;;;;;;;;;;5075684;28;20063;-59
2023/09/29 02:27:54;;;;;;;5.28;3.10;;;;;;;;;;5075981;28;20052;-57
2023/09/29 02:30:20;;;;;;;3.85;3.28;;;;;;;;;;5075586;28;20059;-57
2023/09/29 02:32:52;;;;;;;7.28;3.63;;;;;;;;;;5075791;28;20056;-57
2023/09/29 02:35:19;;;;;;;4.65;3.28;;;;;;;;;;5075769;28;20071;-57
2023/09/29 02:37:45;;;;;;;4.47;2.53;;;;;;;;;;5075359;28;20063;-56
2023/09/29 02:40:12;;;;;;;4.07;2.97;;;;;;;;;;5075829;28;20055;-56
2023/09/29 02:42:40;;;;;;;4.82;2.75;;;;;;;;;;5075127;28;20063;-57
2023/09/29 02:45:07;;;;;;;4.85;2.80;;;;;;;;;;5075269;28;20056;-57
2023/09/29 02:47:34;;;;;;;5.25;3.20;;;;;;;;;;5075667;28;20052;-56
2023/09/29 02:50:02;;;;;;;6.82;3.33;;;;;;;;;;5074575;28;20053;-56
2023/09/29 02:52:29;;;;;;;3.72;3.03;;;;;;;;;;5075250;28;20056;-57
2023/09/29 02:54:56;;;;;;;5.57;2.83;;;;;;;;;;5075577;28;20083;-56
2023/09/29 02:57:22;;;;;;;7.55;3.10;;;;;;;;;;5075086;28;20059;-57
2023/09/29 02:59:49;;;;;;;5.68;2.97;;;;;;;;;;5075376;28;20044;-57
2023/09/29 03:02:16;;;;;;;4.63;3.20;;;;;;;;;;5075506;28;20048;-57
2023/09/29 03:04:43;;;;;;;4.35;3.15;;;;;;;;;;5075124;28;20405;-56
2023/09/29 03:07:13;;;;;;;4.88;2.95;;;;;;;;;;5074624;28;20052;-56
2023/09/29 03:09:39;;;;;;;5.55;3.70;;;;;;;;;;5074616;28;20059;-57
2023/09/29 03:12:07;;;;;;;4.90;2.97;;;;;;;;;;5074764;28;20064;-57
2023/09/29 03:14:34;;;;;;;5.22;3.78;;;;;;;;;;5075063;28;20478;-56
2023/09/29 03:17:01;;;;;;;4.07;2.55;;;;;;;;;;5074913;28;20059;-56
2023/09/29 03:19:30;;;;;;;3.33;2.58;;;;;;;;;;5074605;28;20055;-56
2023/09/29 03:21:58;;;;;;;;;;;;;;;;;;5075862;28;20067;-57
2023/09/29 03:24:26;;;;;;;3.88;2.50;;;;;;;;;;5094821;28;19994;-57
2023/09/29 03:26:53;;;;;;;4.38;3.15;;;;;;;;;;5095076;28;20476;-56
2023/09/29 03:29:20;;;;;;;4.90;2.85;;;;;;;;;;5094759;28;20457;-56
2023/09/29 03:31:47;;;;;;;4.80;3.35;;;;;;;;;;5094493;28;20060;-56
2023/09/29 03:34:14;;;;;;;4.32;2.80;;;;;;;;;;5094821;28;20401;-57
2023/09/29 03:36:41;;;;;;;5.30;3.38;;;;;;;;;;5092581;28;20075;-57
2023/09/29 03:39:09;;;;;;;4.32;2.67;;;;;;;;;;5080640;28;20051;-58
2023/09/29 03:41:37;;;;;;;5.57;3.08;;;;;;;;;;5094881;28;20401;-57
2023/09/29 03:44:04;;;;;;;5.43;2.67;;;;;;;;;;5094580;28;20052;-57
2023/09/29 03:46:31;;;;;;;5.22;3.17;;;;;;;;;;5094512;28;20052;-56
2023/09/29 03:48:58;;;;;;;4.55;3.17;;;;;;;;;;5094628;28;20052;-57
2023/09/29 03:51:25;;;;;;;6.20;3.50;;;;;;;;;;5094275;28;20051;-56
2023/09/29 03:53:52;;;;;;;4.25;2.92;;;;;;;;;;5093301;28;20052;-56
2023/09/29 03:56:22;;;;;;;5.05;2.88;;;;;;;;;;5092820;28;20417;-56
2023/09/29 03:58:51;;;;;;;5.85;3.45;;;;;;;;;;5084878;28;20067;-57
2023/09/29 04:01:18;;;;;;;3.75;2.65;;;;;;;;;;5074093;28;20063;-57
2023/09/29 04:03:45;;;;;;;5.53;3.50;;;;;;;;;;5073360;28;20482;-57
2023/09/29 04:06:12;;;;;;;4.55;2.78;;;;;;;;;;5074025;28;20057;-56
2023/09/29 04:08:39;;;;;;;4.47;2.90;;;;;;;;;;5073821;28;20052;-57
2023/09/29 04:11:05;;;;;;;4.25;2.80;;;;;;;;;;5073674;28;20045;-57
2023/09/29 04:13:33;;;;;;;6.25;2.63;;;;;;;;;;5074126;28;20076;-57
2023/09/29 04:16:04;;;;;;;4.40;2.83;;;;;;;;;;5073690;28;20049;-57
2023/09/29 04:18:31;;;;;;;4.10;2.70;;;;;;;;;;5073695;28;20509;-57
2023/09/29 04:20:59;;;;;;;4.80;2.30;;;;;;;;;;5073501;28;20052;-57
2023/09/29 04:23:27;;;;;;;5.40;3.10;;;;;;;;;;5086502;28;20056;-57
2023/09/29 04:25:53;;;;;;;4.78;2.40;;;;;;;;;;5094122;28;20374;-57
2023/09/29 04:28:21;;;;;;;4.10;2.60;;;;;;;;;;5093770;28;20461;-57
2023/09/29 04:30:48;;;;;;;3.13;2.30;;;;;;;;;;5092711;28;20115;-57
2023/09/29 04:33:16;;;;;;;5.53;2.97;;;;;;;;;;5080618;28;20053;-57
2023/09/29 04:35:43;;;;;;;3.70;2.30;;;;;;;;;;5080883;28;20052;-57
2023/09/29 04:38:09;;;;;;;4.22;2.67;;;;;;;;;;5087236;28;20409;-57
2023/09/29 04:40:37;;;;;;;4.72;3.03;;;;;;;;;;5086022;28;20470;-57
2023/09/29 04:43:04;;;;;;;3.42;2.65;;;;;;;;;;5078546;28;20493;-57
2023/09/29 04:45:33;;;;;;;4.22;2.90;;;;;;;;;;5072355;28;20162;-57
2023/09/29 04:48:01;;;;;;;5.10;3.13;;;;;;;;;;5085864;28;20052;-57
2023/09/29 04:50:29;;;;;;;3.83;2.60;;;;;;;;;;5076793;28;20078;-57
2023/09/29 04:52:56;;;;;;;4.85;2.83;;;;;;;;;;5083689;28;20048;-57
2023/09/29 04:55:23;;;;;;;3.50;2.35;;;;;;;;;;5082547;28;20055;-58
2023/09/29 04:57:52;;;;;;;4.63;2.92;;;;;;;;;;5079553;28;20047;-58
2023/09/29 05:00:19;;;;;;;4.28;2.53;;;;;;;;;;5081560;28;20040;-58
2023/09/29 05:02:45;;;;;;;6.78;3.60;;;;;;;;;;5088787;28;20102;-57
2023/09/29 05:05:12;;;;;;;5.25;3.15;;;;;;;;;;5077319;28;20052;-58
2023/09/29 05:07:43;;;;;;;5.97;4.07;;;;;;;;;;5080954;28;20055;-57
2023/09/29 05:10:10;;;;;;;6.22;3.95;;;;;;;;;;5077817;28;20115;-58
2023/09/29 05:12:37;;;;;;;5.75;3.25;;;;;;;;;;5082475;28;20063;-58
2023/09/29 05:15:04;;;;;;;8.68;3.55;;;;;;;;;;5082533;28;20052;-58
2023/09/29 05:17:31;;;;;;;6.03;3.85;;;;;;;;;;5080603;28;20049;-58
2023/09/29 05:19:58;;;;;;;5.88;3.63;;;;;;;;;;5079790;28;20059;-58
2023/09/29 05:22:25;;;;;;;6.35;3.25;;;;;;;;;;5079446;28;20058;-58
2023/09/29 05:24:53;;;;;;;6.82;3.60;;;;;;;;;;5092934;28;20056;-58
2023/09/29 05:27:20;;;;;;;4.30;2.93;;;;;;;;;;5092841;28;20488;-58
2023/09/29 05:29:47;;;;;;;5.05;3.75;;;;;;;;;;5092820;28;20056;-57
2023/09/29 05:32:14;;;;;;;6.32;2.80;;;;;;;;;;5093017;28;20044;-58
2023/09/29 05:34:41;;;;;;;4.35;1.90;;;;;;;;;;5093054;28;20485;-58
2023/09/29 05:37:08;;;;;;;4.55;1.70;;;;;;;;;;5073564;28;20052;-58
2023/09/29 05:39:35;;;;;;;2.15;1.40;;;;;;;;;;5080269;28;20052;-58
2023/09/29 05:42:03;;;;;;;3.55;1.73;;;;;;;;;;5087684;28;20044;-58
2023/09/29 05:44:30;;;;;;;2.55;1.50;;;;;;;;;;5072627;28;20052;-58
2023/09/29 05:46:57;;;;;;;3.55;1.50;;;;;;;;;;5086463;28;20060;-58
2023/09/29 05:49:24;;;;;;;3.63;2.30;;;;;;;;;;5082720;28;20049;-58
2023/09/29 05:51:50;;;;;;;3.90;2.15;;;;;;;;;;5071622;28;20052;-58
2023/09/29 05:54:17;;;;;;;3.90;1.80;;;;;;;;;;5079395;28;20055;-58
2023/09/29 05:56:44;;;;;;;2.97;1.38;;;;;;;;;;5077083;28;20051;-58
2023/09/29 05:59:12;;;;;;;3.53;1.35;;;;;;;;;;5080811;28;20048;-57
2023/09/29 06:01:39;;;;;;;2.00;1.25;;;;;;;;;;5090976;28;20048;-58
2023/09/29 06:04:06;;;;;;;3.03;1.77;;;;;;;;;;5082622;28;20057;-57
2023/09/29 06:06:33;;;;;;;2.30;1.40;;;;;;;;;;5072547;28;20048;-58
2023/09/29 06:09:00;;;;;;;2.60;1.63;;;;;;;;;;5081721;28;20048;-58
2023/09/29 06:11:26;;;;;;;2.75;1.10;;;;;;;;;;5087459;28;20051;-58
2023/09/29 06:13:53;;;;;;;2.33;1.23;;;;;;;;;;5092594;28;20055;-58
2023/09/29 06:16:22;;;;;;;2.42;1.45;;;;;;;;;;5083733;28;20056;-58
2023/09/29 06:18:49;;;;;;;2.97;1.40;;;;;;;;;;5074914;28;20505;-58
2023/09/29 06:21:17;;;;;;;2.15;1.23;;;;;;;;;;5079144;28;20398;-58
2023/09/29 06:23:43;;;;;;;2.78;1.77;;;;;;;;;;5084110;28;20048;-58
2023/09/29 06:26:10;;;;;;;2.33;1.67;;;;;;;;;;5091000;28;20051;-58
2023/09/29 06:28:38;;;;;;;8.00;2.03;;;;;;;;;;5078829;28;20056;-58
2023/09/29 06:31:06;;;;;;;2.30;1.10;;;;;;;;;;5078243;28;20047;-58
2023/09/29 06:33:34;;;;;;;3.38;1.67;;;;;;;;;;5079799;28;20163;-57
2023/09/29 06:36:01;;;;;;;3.25;1.50;;;;;;;;;;5079318;28;20048;-58
2023/09/29 06:38:29;;;;;;;9.45;1.73;;;;;;;;;;5082752;28;20070;-57
2023/09/29 06:40:57;;;;;;;3.15;1.20;;;;;;;;;;5082184;28;20049;-58
2023/09/29 06:43:23;;;;;;;2.92;1.20;;;;;;;;;;5082845;28;20063;-58
2023/09/29 06:45:50;;;;;;;2.28;1.15;;;;;;;;;;5080905;28;20048;-58
2023/09/29 06:48:17;;;;;;;1.85;1.05;;;;;;;;;;5079604;28;20063;-59
2023/09/29 06:50:45;;;;;;;5.50;1.70;;;;;;;;;;5076209;28;20048;-58
2023/09/29 06:53:12;;;;;;;5.38;1.55;;;;;;;;;;5074728;28;20066;-58
2023/09/29 06:55:39;;;;;;;2.58;1.45;;;;;;;;;;5073541;28;20559;-57
2023/09/29 06:58:06;;;;;;;2.00;1.50;;;;;;;;;;5074940;28;20052;-58
2023/09/29 07:00:33;;;;;;;4.05;1.95;;;;;;;;;;5074833;28;20490;-58
2023/09/29 07:03:00;;;;;;;3.10;1.63;;;;;;;;;;5082201;28;20049;-58
2023/09/29 07:05:27;;;;;;;4.57;1.80;;;;;;;;;;5081779;28;21393;-58
2023/09/29 07:07:55;;;;;;;3.03;1.90;;;;;;;;;;5083487;28;20587;-58
2023/09/29 07:10:22;;;;;;;2.40;1.43;;;;;;;;;;5085046;28;20048;-58
2023/09/29 07:12:49;;;;;;;2.58;1.20;;;;;;;;;;5082170;28;20409;-59
2023/09/29 07:15:16;;;;;;;3.00;1.80;;;;;;;;;;5084457;28;20048;-58
2023/09/29 07:17:43;;;;;;;2.03;1.40;;;;;;;;;;5084175;28;20056;-58
2023/09/29 07:20:10;;;;;;;2.25;1.23;;;;;;;;;;5087980;28;20413;-58
2023/09/29 07:22:37;;;;;;;2.97;1.75;;;;;;;;;;5083736;28;20064;-59
2023/09/29 07:25:06;;;;;;;2.42;1.55;;;;;;;;;;5083743;28;20055;-59
2023/09/29 07:27:33;;;;;;;2.33;1.40;;;;;;;;;;5085871;28;20048;-59
2023/09/29 07:30:00;;;;;;;2.40;1.20;;;;;;;;;;5089462;28;20416;-58
2023/09/29 07:32:26;;;;;;;3.33;1.30;;;;;;;;;;5086691;28;20056;-59
2023/09/29 07:34:53;;;;;;;2.25;1.45;;;;;;;;;;5086607;28;20060;-58
2023/09/29 07:37:20;;;;;;;2.45;1.25;;;;;;;;;;5087242;28;20066;-59
2023/09/29 07:39:47;;;;;;;2.80;1.30;;;;;;;;;;5083642;28;20063;-57
2023/09/29 07:42:17;;;;;;;2.95;1.75;;;;;;;;;;5080239;28;20056;-57
2023/09/29 07:44:44;;;;;;;5.85;1.60;;;;;;;;;;5081938;28;20056;-57
2023/09/29 07:47:11;;;;;;;3.08;1.58;;;;;;;;;;5082473;28;20059;-56
2023/09/29 07:49:40;;;;;;;6.53;1.70;;;;;;;;;;5084292;28;20083;-57
2023/09/29 07:52:07;;;;;;;2.03;1.33;;;;;;;;;;5084620;28;20409;-57
2023/09/29 07:54:35;;;;;;;2.00;1.13;;;;;;;;;;5078584;28;20056;-58
2023/09/29 07:57:02;;;;;;;2.90;2.03;;;;;;;;;;5086899;28;20055;-56
2023/09/29 07:59:30;;;;;;;2.35;1.35;;;;;;;;;;5085752;28;20052;-56
2023/09/29 08:01:58;;;;;;;2.00;1.25;;;;;;;;;;5083433;28;20448;-57
2023/09/29 08:04:25;;;;;;;5.28;1.92;;;;;;;;;;5089069;28;20063;-58
2023/09/29 08:06:52;;;;;;;2.17;1.30;;;;;;;;;;5087315;28;20080;-56
2023/09/29 08:09:18;;;;;;;1.88;1.20;;;;;;;;;;5084958;28;20049;-57
2023/09/29 08:11:45;;;;;;;2.30;1.30;;;;;;;;;;5080324;28;20040;-57
2023/09/29 08:14:12;;;;;;;3.05;1.10;;;;;;;;;;5081927;28;20052;-58
2023/09/29 08:16:41;;;;;;;2.97;1.27;;;;;;;;;;5081544;28;20406;-56
2023/09/29 08:19:07;;;;;;;3.42;1.50;;;;;;;;;;5080561;28;20049;-58
2023/09/29 08:21:34;;;;;;;2.80;1.30;;;;;;;;;;5086548;28;20428;-58
2023/09/29 08:24:03;;;;;;;1.80;1.00;;;;;;;;;;5085742;28;20542;-58
2023/09/29 08:26:30;;;;;;;1.58;1.00;;;;;;;;;;5087798;28;20075;-57
2023/09/29 08:28:57;;;;;;;2.25;1.23;;;;;;;;;;5088127;28;20048;-57
2023/09/29 08:31:24;;;;;;;2.50;1.40;;;;;;;;;;5084295;28;20146;-58
2023/09/29 08:33:52;;;;;;;2.60;1.80;;;;;;;;;;5081178;28;20051;-58
2023/09/29 08:36:19;;;;;;;8.50;1.45;;;;;;;;;;5085355;28;20146;-57
2023/09/29 08:38:46;;;;;;;2.25;1.17;;;;;;;;;;5086941;28;20066;-57
2023/09/29 08:41:13;;;;;;;1.98;1.20;;;;;;;;;;5082862;28;20049;-57
2023/09/29 08:43:40;;;;;;;4.95;1.65;;;;;;;;;;5081336;28;20363;-58
2023/09/29 08:46:09;;;;;;;2.10;1.15;;;;;;;;;;5084214;28;20049;-58
2023/09/29 08:48:36;;;;;;;1.80;1.10;;;;;;;;;;5086680;28;20146;-58
2023/09/29 08:51:05;;;;;;;3.05;1.50;;;;;;;;;;5078091;28;20083;-58
2023/09/29 08:53:34;;;;;;;1.73;1.00;;;;;;;;;;5083986;28;20476;-58
2023/09/29 08:56:04;;;;;;;4.25;1.20;;;;;;;;;;5086756;28;20051;-58
2023/09/29 08:58:32;;;;;;;2.30;1.05;;;;;;;;;;5084290;28;20067;-58
2023/09/29 09:00:59;;;;;;;2.95;1.20;;;;;;;;;;5080002;28;20056;-58
2023/09/29 09:03:26;;;;;;;2.90;1.58;;;;;;;;;;5086993;28;20137;-58
2023/09/29 09:05:55;;;;;;;2.40;1.02;;;;;;;;;;5082602;28;20491;-58
2023/09/29 09:08:25;;;;;;;3.00;1.50;;;;;;;;;;5082771;28;20428;-58
2023/09/29 09:10:57;;;;;;;2.13;1.50;;;;;;;;;;5083403;28;20059;-58
2023/09/29 09:13:26;;;;;;;1.95;1.33;;;;;;;;;;5083185;28;20052;-58
2023/09/29 09:15:55;;;;;;;3.58;1.30;;;;;;;;;;5084489;28;20044;-58
2023/09/29 09:18:24;;;;;;;3.17;1.60;;;;;;;;;;5085258;28;20058;-58
2023/09/29 09:20:51;;;;;;;2.33;1.20;;;;;;;;;;5082262;28;20052;-57
2023/09/29 09:23:18;;;;;;;2.20;1.20;;;;;;;;;;5081456;28;20044;-58
2023/09/29 09:25:46;;;;;;;3.25;1.70;;;;;;;;;;5083161;28;20072;-57
2023/09/29 09:28:17;;;;;;;1.80;1.10;;;;;;;;;;5080592;28;20052;-57
2023/09/29 09:30:44;;;;;;;3.22;1.55;;;;;;;;;;5082919;28;20058;-57
2023/09/29 09:33:16;;;;;;;2.65;1.70;;;;;;;;;;5082709;28;20394;-57
2023/09/29 09:35:43;;;;;;;1.88;1.05;;;;;;;;;;5082101;28;20071;-57
2023/09/29 09:38:10;;;;;;;2.20;1.52;;;;;;;;;;5077732;28;20052;-57
2023/09/29 09:40:37;;;;;;;3.95;1.80;;;;;;;;;;5074505;28;20060;-58
2023/09/29 09:43:08;;;;;;;3.60;1.30;;;;;;;;;;5079513;28;20398;-57
2023/09/29 09:45:39;;;;;;;2.35;1.42;;;;;;;;;;5077250;28;20052;-57
2023/09/29 09:48:07;;;;;;;2.78;1.50;;;;;;;;;;5081498;28;20060;-57
2023/09/29 09:50:36;;;;;;;3.58;1.60;;;;;;;;;;5073092;28;20059;-58
2023/09/29 09:53:04;;;;;;;3.90;1.48;;;;;;;;;;5077178;28;20044;-57
2023/09/29 09:55:37;;;;;;;2.63;1.35;;;;;;;;;;5085870;28;20079;-56
2023/09/29 09:58:09;;;;;;;3.65;1.50;;;;;;;;;;5078205;28;20047;-56
2023/09/29 10:00:37;;;;;;;2.40;1.73;;;;;;;;;;5082305;28;20056;-59
2023/09/29 10:03:11;;;;;;;6.63;1.75;;;;;;;;;;5077768;28;20052;-56
2023/09/29 10:05:40;;;;;;;2.92;1.30;;;;;;;;;;5075442;28;20421;-56
2023/09/29 10:08:07;;;;;;;3.90;1.35;;;;;;;;;;5078639;28;20409;-59
2023/09/29 10:10:35;;;;;;;2.47;1.65;;;;;;;;;;5078943;28;20056;-57
2023/09/29 10:13:03;;;;;;;2.45;1.25;;;;;;;;;;5077262;28;20071;-57
2023/09/29 10:15:32;;;;;;;3.35;1.77;;;;;;;;;;5083273;28;20536;-57
2023/09/29 10:17:59;;;;;;;4.97;1.98;;;;;;;;;;5087191;28;20044;-57
2023/09/29 10:20:29;;;;;;;3.80;2.33;;;;;;;;;;5077392;28;20485;-58
2023/09/29 10:23:06;;;;;;;3.85;1.58;;;;;;;;;;5093688;28;20048;-57
2023/09/29 10:25:34;;;;;;;2.83;1.55;;;;;;;;;;5085434;28;20056;-57
2023/09/29 10:28:01;;;;;;;3.30;1.90;;;;;;;;;;5071208;28;20053;-57
2023/09/29 10:30:28;;;;;;;3.40;1.52;;;;;;;;;;5070196;28;20056;-57
2023/09/29 10:33:06;;;;;;;3.17;1.83;;;;;;;;;;5070608;28;20075;-57
2023/09/29 10:35:35;;;;;;;2.17;1.25;;;;;;;;;;5071214;28;20049;-57
2023/09/29 10:38:07;;;;;;;;;;;;;;;;;;5075083;28;20521;-57
2023/09/29 10:40:34;;;;;;;4.35;1.45;;;;;;;;;;5073331;28;19926;-58
2023/09/29 10:43:02;;;;;;;3.60;1.80;;;;;;;;;;5073409;28;20048;-58
2023/09/29 10:45:36;;;;;;;2.28;1.63;;;;;;;;;;5072259;28;20049;-58
2023/09/29 10:48:06;;;;;;;2.58;1.55;;;;;;;;;;5073585;28;20048;-57
2023/09/29 10:50:39;;;;;;;3.47;1.95;;;;;;;;;;5073875;28;20048;-57
2023/09/29 10:53:06;;;;;;;3.33;1.88;;;;;;;;;;5075504;28;20049;-57
2023/09/29 10:55:34;;;;;;;2.35;1.55;;;;;;;;;;5075037;28;20496;-58
2023/09/29 10:58:02;;;;;;;3.10;1.92;;;;;;;;;;5092790;28;20519;-57
2023/09/29 11:00:29;;;;;;;3.33;1.58;;;;;;;;;;5080235;28;20055;-58
2023/09/29 11:02:56;;;;;;;3.85;2.00;;;;;;;;;;5083669;28;20059;-58
2023/09/29 11:05:24;;;;;;;2.58;1.52;;;;;;;;;;5082692;28;20059;-58
2023/09/29 13:18:30;;;;;;;6.97;3.05;;;;;;;;;;5170101;22;20089;-77
2023/09/29 13:20:57;;;;;;;5.40;2.75;;;;;;;;;;5030956;28;20405;-76
2023/09/29 13:23:24;;;;;;;4.75;2.78;;;;;;;;;;5030204;28;20064;-76
2023/09/29 13:25:51;;;;;;;8.80;2.78;;;;;;;;;;5012875;28;20520;-75
2023/09/29 13:28:18;;;;;;;4.13;2.53;;;;;;;;;;5014898;28;20054;-76
2023/09/29 13:30:46;;;;;;;5.13;2.72;;;;;;;;;;5031751;28;20049;-76
2023/09/29 13:33:12;;;;;;;6.82;2.95;;;;;;;;;;5030619;28;20451;-77
2023/09/29 13:35:41;;;;;;;4.55;2.63;;;;;;;;;;5031337;28;20045;-77
2023/09/29 13:38:08;;;;;;;6.25;3.33;;;;;;;;;;5032543;28;20129;-77
2023/09/29 13:40:34;;;;;;;8.13;3.67;;;;;;;;;;5032654;28;20045;-77
2023/09/29 13:43:01;;;;;;;5.25;2.95;;;;;;;;;;5032426;28;20057;-77
2023/09/29 13:45:28;;;;;;;7.07;2.47;;;;;;;;;;5032435;28;20056;-77
2023/09/29 13:47:55;;;;;;;6.15;2.55;;;;;;;;;;5032545;28;20061;-77
2023/09/29 13:50:22;;;;;;;5.57;2.20;;;;;;;;;;5032332;28;20374;-77
2023/09/29 13:52:50;;;;;;;4.18;1.90;;;;;;;;;;5031088;28;20053;-77
2023/09/29 13:55:17;;;;;;;6.18;2.50;;;;;;;;;;5032410;28;20053;-77
2023/09/29 13:57:44;;;;;;;6.43;3.03;;;;;;;;;;5032436;28;20068;-77
2023/09/29 14:00:12;;;;;;;6.03;2.83;;;;;;;;;;5032646;28;20050;-77
2023/09/29 14:02:39;;;;;;;6.97;2.67;;;;;;;;;;5032552;28;20057;-76
2023/09/29 14:05:06;;;;;;;6.43;2.58;;;;;;;;;;5032640;28;20405;-77
2023/09/29 14:07:33;;;;;;;6.38;3.03;;;;;;;;;;5025474;28;20422;-77
2023/09/29 14:10:01;;;;;;;4.50;2.65;;;;;;;;;;5012301;28;20062;-77
2023/09/29 14:12:29;;;;;;;6.35;3.10;;;;;;;;;;5012819;28;20053;-77
2023/09/29 14:14:56;;;;;;;5.47;2.95;;;;;;;;;;5012434;28;20054;-77
2023/09/29 14:17:23;;;;;;;4.28;2.13;;;;;;;;;;5021180;28;20061;-77
2023/09/29 14:19:50;;;;;;;4.57;2.33;;;;;;;;;;5031709;28;20057;-77
2023/09/29 14:22:17;;;;;;;4.43;2.47;;;;;;;;;;5031966;28;20486;-77
2023/09/29 14:24:43;;;;;;;6.18;2.42;;;;;;;;;;5032264;28;20500;-77
2023/09/29 14:27:11;;;;;;;4.72;2.63;;;;;;;;;;5032682;28;20454;-77
2023/09/29 14:29:38;;;;;;;4.77;2.20;;;;;;;;;;5029335;28;20050;-77
2023/09/29 14:32:06;;;;;;;5.53;2.38;;;;;;;;;;5013968;28;20503;-80
2023/09/29 14:34:32;;;;;;;5.45;3.30;;;;;;;;;;5012239;28;20418;-80
2023/09/29 14:36:59;;;;;;;6.13;2.90;;;;;;;;;;5012464;28;20065;-80
2023/09/29 14:39:26;;;;;;;3.08;1.60;;;;;;;;;;5011896;28;20057;-79
2023/09/29 14:41:53;;;;;;;4.00;1.98;;;;;;;;;;5028357;28;20575;-80
2023/09/29 14:44:21;;;;;;;3.17;1.58;;;;;;;;;;5031856;28;20180;-80
2023/09/29 14:46:48;;;;;;;3.95;1.58;;;;;;;;;;5032928;28;20057;-80
2023/09/29 14:49:17;;;;;;;4.25;1.40;;;;;;;;;;5035313;28;20061;-80
2023/09/29 14:51:44;;;;;;;2.20;1.10;;;;;;;;;;5043666;28;20060;-80
2023/09/29 14:54:11;;;;;;;5.40;2.00;;;;;;;;;;5035342;28;20049;-80
2023/09/29 14:56:37;;;;;;;4.35;1.45;;;;;;;;;;5035231;28;20076;-80
2023/09/29 14:59:06;;;;;;;3.15;1.50;;;;;;;;;;5035760;28;20053;-80
2023/09/29 15:01:34;;;;;;;2.50;1.20;;;;;;;;;;5036125;28;20053;-79
2023/09/29 15:04:01;;;;;;;2.90;1.45;;;;;;;;;;5036423;28;20098;-79
2023/09/29 15:06:29;;;;;;;4.30;1.77;;;;;;;;;;5039353;28;20049;-81
2023/09/29 15:08:56;;;;;;;3.45;1.30;;;;;;;;;;5055354;28;20064;-80
2023/09/29 15:11:23;;;;;;;3.92;1.90;;;;;;;;;;5035138;28;20056;-79
2023/09/29 15:13:50;;;;;;;2.88;1.20;;;;;;;;;;5035298;28;20489;-79
2023/09/29 15:16:17;;;;;;;3.35;1.15;;;;;;;;;;5034646;28;20041;-79
2023/09/29 15:18:46;;;;;;;1.63;1.00;;;;;;;;;;5033950;28;20060;-79
2023/09/29 15:21:13;;;;;;;1.98;1.08;;;;;;;;;;5034174;28;20149;-80
2023/09/29 15:23:40;;;;;;;4.53;1.60;;;;;;;;;;5014510;28;20061;-79
2023/09/29 15:26:07;;;;;;;3.92;1.90;;;;;;;;;;5018253;28;20068;-79
2023/09/29 15:28:34;;;;;;;3.25;1.90;;;;;;;;;;5046307;28;20052;-77
2023/09/29 15:31:01;;;;;;;4.18;1.60;;;;;;;;;;5045572;28;20052;-78
2023/09/29 15:33:28;;;;;;;3.08;1.27;;;;;;;;;;5054370;28;20052;-77
2023/09/29 15:35:57;;;;;;;2.92;1.20;;;;;;;;;;5053417;28;20421;-77
2023/09/29 15:38:25;;;;;;;3.88;1.85;;;;;;;;;;5014635;28;20054;-77
2023/09/29 15:40:52;;;;;;;12.25;2.47;;;;;;;;;;5015031;28;20058;-77
2023/09/29 15:43:19;;;;;;;5.18;2.10;;;;;;;;;;5015311;28;20065;-78
2023/09/29 15:45:46;;;;;;;5.20;2.50;;;;;;;;;;5014679;28;20046;-75
2023/09/29 15:48:13;;;;;;;3.65;1.83;;;;;;;;;;5014682;28;20065;-75
2023/09/29 15:50:40;;;;;;;4.70;1.63;;;;;;;;;;5021476;28;20049;-76
2023/09/29 15:53:08;;;;;;;4.93;1.50;;;;;;;;;;5034231;28;20054;-75
2023/09/29 15:55:35;;;;;;;1.52;0.90;;;;;;;;;;5032212;28;20516;-76
2023/09/29 15:58:02;;;;;;;1.35;0.82;;;;;;;;;;5025172;28;20050;-77
2023/09/29 16:00:31;;;;;;;2.13;1.02;;;;;;;;;;5040078;28;20064;-76
2023/09/29 16:02:58;;;;;;;1.60;0.95;;;;;;;;;;5040012;28;20053;-76
2023/09/29 16:05:25;;;;;;;1.98;0.88;;;;;;;;;;5018909;28;20057;-77
2023/09/29 16:07:52;;;;;;;3.22;1.40;;;;;;;;;;5033755;28;20064;-76
2023/09/29 16:10:21;;;;;;;3.35;1.00;;;;;;;;;;5033935;28;20053;-76
2023/09/29 16:12:48;;;;;;;2.83;1.00;;;;;;;;;;5033988;28;20053;-76
2023/09/29 16:15:14;;;;;;;2.50;1.42;;;;;;;;;;5033731;28;20056;-76
2023/09/29 16:17:44;;;;;;;3.10;1.60;;;;;;;;;;5033318;28;20057;-76
2023/09/29 16:20:12;;;;;;;3.13;1.45;;;;;;;;;;5034604;28;20486;-75
2023/09/29 16:22:38;;;;;;;2.85;1.60;;;;;;;;;;5033752;28;20054;-76
2023/09/29 16:25:06;;;;;;;1.50;0.98;;;;;;;;;;5036550;28;20070;-76
2023/09/29 16:27:34;;;;;;;4.40;1.33;;;;;;;;;;5039248;28;20057;-75
2023/09/29 16:30:01;;;;;;;2.65;1.10;;;;;;;;;;5031498;28;20057;-75
2023/09/29 16:32:28;;;;;;;2.10;1.15;;;;;;;;;;5030399;28;20053;-76
2023/09/29 16:34:56;;;;;;;3.33;1.40;;;;;;;;;;5021831;28;20050;-76
2023/09/29 16:37:23;;;;;;;1.23;0.82;;;;;;;;;;5018091;28;20466;-75
2023/09/29 16:39:49;;;;;;;2.17;1.20;;;;;;;;;;5025181;28;20046;-78
2023/09/29 16:42:16;;;;;;;1.55;1.40;;;;;;;;;;5029130;28;20061;-78
2023/09/29 16:44:45;;;;;;;2.20;1.30;;;;;;;;;;5033335;28;20056;-78
2023/09/29 16:47:13;;;;;;;3.20;1.27;;;;;;;;;;5027076;28;20394;-76
2023/09/29 16:49:39;;;;;;;1.25;0.80;;;;;;;;;;5032972;28;20053;-75
2023/09/29 16:52:07;;;;;;;4.70;1.00;;;;;;;;;;5021543;28;20054;-77
2023/09/29 16:54:34;;;;;;;1.70;0.95;;;;;;;;;;5018180;28;20434;-75